Terminal Aerodrome Forecast
Issued by NWS Brownsville, TX

Home | Current Version | Previous Version | Text Only | Print | Product List | Glossary On
Versions: 1 2 3 4 5 6 7 8 9 10 11 12 13 14 15 16 17 18 19 20 21 22 23 24 25
000
FTUS44 KBRO 220500 CCA
TAFMFE
TAF COR
KMFE 220555Z 2206/2306 09008KT P6SM VCSH FEW030 SCT250
     FM220900 VRB05KT 5SM BR SCT020
     FM221300 04005KT P6SM FEW025 SCT250
     FM221900 05012G18KT P6SM VCSH SCT040
     FM230300 08006KT P6SM SCT035=

USA.gov is the U.S. government's official web portal to all federal, state and local government web resources and services.